createdAt,value
2017-09-25T00:01:17.101Z,75.50
2017-09-25T00:03:45.326Z,76.00
2017-09-25T00:06:12.786Z,75.70
2017-09-25T00:08:40.249Z,75.60
2017-09-25T00:11:07.700Z,75.60
2017-09-25T00:13:35.141Z,75.40
2017-09-25T00:16:03.345Z,75.40
2017-09-25T00:18:30.809Z,75.40
2017-09-25T00:20:58.253Z,75.30
2017-09-25T00:23:25.701Z,75.00
2017-09-25T00:25:53.917Z,75.30
2017-09-25T00:28:21.353Z,75.10
2017-09-25T00:30:49.566Z,75.10
2017-09-25T00:33:17.009Z,75.00
2017-09-25T00:35:44.470Z,75.00
2017-09-25T00:38:11.901Z,75.00
2017-09-25T00:40:39.366Z,75.00
2017-09-25T00:43:06.805Z,74.90
2017-09-25T00:45:34.254Z,74.80
2017-09-25T00:48:01.705Z,74.80
2017-09-25T00:50:29.157Z,75.00
2017-09-25T00:53:08.539Z,74.80
2017-09-25T00:55:47.878Z,74.90
2017-09-25T00:58:15.313Z,74.90
2017-09-25T01:00:54.526Z,75.70
2017-09-25T01:03:46.468Z,75.00
2017-09-25T01:06:24.596Z,75.00
2017-09-25T01:08:52.045Z,75.00
2017-09-25T01:11:19.490Z,75.20
2017-09-25T01:13:46.927Z,75.20
2017-09-25T01:16:14.369Z,75.10
2017-09-25T01:18:42.578Z,75.10
2017-09-25T01:21:10.013Z,75.10
2017-09-25T01:23:38.226Z,75.20
2017-09-25T01:26:05.660Z,75.20
2017-09-25T01:28:33.096Z,75.20
2017-09-25T01:31:00.546Z,75.10
2017-09-25T01:33:27.984Z,75.00
2017-09-25T01:35:55.430Z,75.20
2017-09-25T01:38:22.865Z,75.40
2017-09-25T01:40:50.312Z,75.40
2017-09-25T01:43:18.518Z,75.40
2017-09-25T01:45:45.982Z,75.40
2017-09-25T01:48:13.413Z,75.30
2017-09-25T01:50:40.869Z,75.40
2017-09-25T01:53:08.318Z,75.40
2017-09-25T01:55:35.778Z,75.50
2017-09-25T01:58:03.244Z,75.50
2017-09-25T02:00:30.692Z,75.60
2017-09-25T02:02:58.149Z,75.70
2017-09-25T02:05:25.598Z,75.80
2017-09-25T02:07:53.077Z,75.80
2017-09-25T02:10:21.286Z,75.90
2017-09-25T02:12:48.731Z,75.90
2017-09-25T02:15:16.181Z,75.80
2017-09-25T02:17:43.623Z,75.70
2017-09-25T02:20:11.087Z,75.60
2017-09-25T02:22:38.524Z,75.70
2017-09-25T02:25:06.736Z,75.70
2017-09-25T02:27:34.183Z,75.70
2017-09-25T02:30:01.678Z,75.70
2017-09-25T02:32:29.137Z,75.70
2017-09-25T02:34:56.601Z,75.60
2017-09-25T02:37:24.029Z,75.70
2017-09-25T02:39:51.478Z,75.90
2017-09-25T02:42:19.703Z,75.90
2017-09-25T02:44:47.157Z,75.90
2017-09-25T02:47:14.621Z,75.90
2017-09-25T02:49:42.065Z,75.80
2017-09-25T02:52:09.531Z,76.00
2017-09-25T02:54:36.974Z,76.00
2017-09-25T02:57:05.187Z,76.00
2017-09-25T02:59:32.641Z,76.00
2017-09-25T03:02:00.072Z,76.20
2017-09-25T03:04:28.275Z,76.40
2017-09-25T03:06:55.709Z,76.50
2017-09-25T03:09:23.917Z,77.20
2017-09-25T03:11:51.360Z,76.40
2017-09-25T03:14:19.577Z,76.20
2017-09-25T03:16:47.032Z,76.20
2017-09-25T03:19:14.477Z,76.00
2017-09-25T03:21:41.919Z,76.00
2017-09-25T03:24:09.366Z,75.90
2017-09-25T03:26:36.808Z,75.80
2017-09-25T03:29:04.278Z,75.80
2017-09-25T03:31:31.721Z,75.90
2017-09-25T03:33:59.167Z,75.80
2017-09-25T03:36:26.621Z,75.80
2017-09-25T03:38:54.070Z,76.00
2017-09-25T03:41:21.519Z,76.20
2017-09-25T03:43:49.721Z,76.10
2017-09-25T03:46:17.169Z,76.10
2017-09-25T03:48:45.365Z,76.00
2017-09-25T03:51:12.834Z,76.00
2017-09-25T03:53:40.281Z,75.80
2017-09-25T03:56:07.730Z,75.60
2017-09-25T03:58:35.939Z,75.40
2017-09-25T04:01:03.377Z,75.40
2017-09-25T04:03:31.594Z,75.50
2017-09-25T04:05:59.050Z,75.50
2017-09-25T04:08:26.500Z,75.50
2017-09-25T04:10:53.932Z,76.00
2017-09-25T04:13:22.152Z,75.60
2017-09-25T04:15:49.605Z,75.60
2017-09-25T04:18:17.041Z,75.60
2017-09-25T04:20:45.249Z,75.70
2017-09-25T04:23:12.685Z,75.70
2017-09-25T04:25:40.899Z,75.70
2017-09-25T04:28:08.336Z,75.70
2017-09-25T04:30:36.545Z,75.70
2017-09-25T04:33:04.009Z,75.70
2017-09-25T04:35:31.458Z,75.80
2017-09-25T04:37:58.900Z,75.90
2017-09-25T04:40:27.110Z,76.10
2017-09-25T04:42:54.554Z,76.10
2017-09-25T04:45:21.990Z,76.20
2017-09-25T04:47:49.421Z,76.40
2017-09-25T04:50:16.893Z,76.20
2017-09-25T04:52:44.341Z,76.20
2017-09-25T04:55:11.783Z,76.30
2017-09-25T04:57:39.254Z,76.20
2017-09-25T05:00:06.700Z,76.20
2017-09-25T05:02:34.174Z,76.20
2017-09-25T05:05:01.613Z,76.20
2017-09-25T05:07:29.841Z,76.00
2017-09-25T05:09:57.314Z,76.00
2017-09-25T05:12:24.771Z,75.90
2017-09-25T05:14:52.217Z,76.00
2017-09-25T05:17:19.674Z,76.10
2017-09-25T05:19:47.269Z,76.30
2017-09-25T05:22:14.713Z,76.30
2017-09-25T05:24:42.161Z,76.40
2017-09-25T05:27:09.615Z,76.30
2017-09-25T05:29:37.061Z,76.20
2017-09-25T05:32:04.492Z,76.30
2017-09-25T05:34:31.961Z,76.40
2017-09-25T05:36:59.393Z,76.40
2017-09-25T05:39:26.833Z,76.60
2017-09-25T05:41:54.276Z,76.70
2017-09-25T05:44:21.734Z,76.70
2017-09-25T05:46:49.946Z,76.90
2017-09-25T05:49:17.392Z,76.90
2017-09-25T05:51:44.832Z,77.10
2017-09-25T05:54:13.029Z,77.30
2017-09-25T05:56:40.481Z,77.20
2017-09-25T05:59:07.920Z,77.40
2017-09-25T06:01:35.378Z,77.50
2017-09-25T06:04:02.840Z,77.60
2017-09-25T06:06:30.268Z,77.50
2017-09-25T06:08:57.716Z,77.50
2017-09-25T06:11:25.178Z,77.30
2017-09-25T06:13:52.626Z,77.30
2017-09-25T06:16:20.061Z,77.50
2017-09-25T06:18:48.276Z,77.70
2017-09-25T06:21:15.706Z,77.70
2017-09-25T06:23:43.943Z,77.90
2017-09-25T06:26:11.373Z,77.90
2017-09-25T06:28:38.801Z,78.00
2017-09-25T06:31:06.244Z,77.90
2017-09-25T06:33:33.689Z,77.90
2017-09-25T06:36:01.133Z,77.90
2017-09-25T06:38:28.578Z,77.90
2017-09-25T06:40:56.796Z,78.20
2017-09-25T06:43:24.225Z,78.20
2017-09-25T06:45:51.688Z,78.20
2017-09-25T06:48:19.133Z,78.30
2017-09-25T06:50:47.335Z,79.00
2017-09-25T06:53:14.777Z,78.30
2017-09-25T06:55:42.990Z,78.30
2017-09-25T06:58:10.435Z,78.30
2017-09-25T07:00:37.877Z,78.40
2017-09-25T07:03:06.080Z,78.50
2017-09-25T07:05:33.537Z,78.50
2017-09-25T07:08:00.977Z,78.70
2017-09-25T07:10:29.181Z,78.90
2017-09-25T07:12:56.643Z,78.90
2017-09-25T07:15:24.080Z,79.70
2017-09-25T07:17:52.277Z,79.10
2017-09-25T07:20:20.499Z,79.10
2017-09-25T07:22:47.934Z,79.10
2017-09-25T07:25:15.849Z,79.30
2017-09-25T07:27:43.296Z,79.30
2017-09-25T07:30:10.748Z,80.00
2017-09-25T07:32:38.181Z,79.70
2017-09-25T07:35:06.421Z,79.80
2017-09-25T07:37:33.881Z,79.80
2017-09-25T07:40:01.306Z,79.70
2017-09-25T07:42:28.757Z,80.10
2017-09-25T07:44:56.193Z,80.00
2017-09-25T07:47:23.653Z,80.20
2017-09-25T07:49:51.086Z,80.50
2017-09-25T07:52:18.529Z,80.20
2017-09-25T07:54:45.980Z,80.40
2017-09-25T07:57:13.425Z,80.40
2017-09-25T07:59:40.869Z,80.50
2017-09-25T08:02:09.088Z,80.40
2017-09-25T08:04:36.558Z,80.40
2017-09-25T08:07:03.981Z,80.80
2017-09-25T08:09:32.181Z,80.80
2017-09-25T08:11:59.621Z,80.70
2017-09-25T08:14:27.833Z,80.50
2017-09-25T08:16:55.254Z,80.50
2017-09-25T08:19:22.685Z,80.60
2017-09-25T08:21:50.154Z,80.60
2017-09-25T08:24:17.598Z,80.60
2017-09-25T08:26:45.035Z,80.70
2017-09-25T08:29:12.490Z,80.80
2017-09-25T08:31:39.923Z,81.00
2017-09-25T08:34:07.362Z,81.00
2017-09-25T08:36:34.814Z,81.00
2017-09-25T08:39:02.246Z,81.10
2017-09-25T08:41:29.854Z,81.20
2017-09-25T08:43:57.289Z,81.20
2017-09-25T08:46:24.749Z,81.30
2017-09-25T08:48:52.208Z,81.30
2017-09-25T08:51:19.660Z,81.40
2017-09-25T08:53:47.094Z,81.40
2017-09-25T08:56:14.525Z,81.50
2017-09-25T08:58:41.960Z,81.50
2017-09-25T09:01:09.403Z,81.50
2017-09-25T09:03:38.013Z,81.60
2017-09-25T09:06:06.247Z,81.60
2017-09-25T09:08:45.642Z,81.60
2017-09-25T09:11:13.071Z,82.30
2017-09-25T09:13:40.516Z,81.60
2017-09-25T09:16:08.713Z,81.70
2017-09-25T09:18:36.158Z,81.70
2017-09-25T09:21:04.357Z,81.80
2017-09-25T09:23:31.795Z,81.70
2017-09-25T09:25:59.229Z,81.90
2017-09-25T09:28:26.658Z,82.60
2017-09-25T09:30:54.093Z,81.80
2017-09-25T09:33:22.297Z,82.00
2017-09-25T09:35:49.746Z,81.80
2017-09-25T09:38:17.181Z,82.00
2017-09-25T09:40:44.642Z,82.20
2017-09-25T09:43:12.077Z,82.10
2017-09-25T09:45:39.520Z,82.70
2017-09-25T09:48:06.973Z,81.90
2017-09-25T09:50:34.410Z,82.00
2017-09-25T09:53:02.631Z,81.40
2017-09-25T09:55:30.061Z,81.40
2017-09-25T09:57:57.497Z,81.20
2017-09-25T10:00:24.928Z,81.10
2017-09-25T10:02:52.389Z,81.80
2017-09-25T10:05:19.832Z,81.00
2017-09-25T10:07:47.253Z,81.00
2017-09-25T10:10:15.469Z,80.70
2017-09-25T10:12:42.907Z,80.50
2017-09-25T10:15:11.110Z,80.10
2017-09-25T10:17:38.552Z,80.00
2017-09-25T10:20:06.754Z,79.30
2017-09-25T10:22:34.182Z,79.20
2017-09-25T10:25:02.383Z,78.80
2017-09-25T10:27:29.821Z,78.70
2017-09-25T10:29:58.032Z,78.60
2017-09-25T10:32:25.476Z,78.60
2017-09-25T10:34:53.670Z,78.20
2017-09-25T10:37:21.109Z,78.20
2017-09-25T10:39:49.361Z,77.30
2017-09-25T10:42:16.806Z,77.30
2017-09-25T10:44:44.274Z,77.30
2017-09-25T10:47:11.753Z,77.50
2017-09-25T10:49:39.146Z,77.70
2017-09-25T10:52:07.394Z,77.60
2017-09-25T10:54:34.931Z,77.60
2017-09-25T10:57:02.393Z,77.50
2017-09-25T10:59:29.831Z,77.20
2017-09-25T11:02:00.497Z,77.20
2017-09-25T11:04:27.976Z,77.10
2017-09-25T11:06:55.462Z,77.00
2017-09-25T11:09:22.888Z,77.00
2017-09-25T11:11:50.330Z,77.00
2017-09-25T11:14:17.783Z,76.20
2017-09-25T11:16:45.212Z,76.30
2017-09-25T11:19:12.670Z,76.30
2017-09-25T11:21:40.106Z,75.80
2017-09-25T11:24:07.542Z,76.50
2017-09-25T11:26:34.973Z,76.30
2017-09-25T11:29:03.169Z,75.90
2017-09-25T11:31:30.618Z,75.90
2017-09-25T11:33:58.879Z,75.70
2017-09-25T11:36:26.327Z,75.60
2017-09-25T11:38:53.767Z,75.50
2017-09-25T11:41:21.223Z,75.20
2017-09-25T11:43:48.674Z,75.10
2017-09-25T11:46:16.122Z,74.30
2017-09-25T11:48:43.570Z,74.40
2017-09-25T11:51:11.800Z,72.80
2017-09-25T11:53:39.233Z,72.80
2017-09-25T11:56:06.669Z,73.40
2017-09-25T11:58:34.884Z,73.70
2017-09-25T12:01:02.335Z,73.70
2017-09-25T12:03:29.809Z,73.70
2017-09-25T12:05:57.259Z,73.60
2017-09-25T12:08:24.691Z,73.50
2017-09-25T12:10:52.126Z,73.50
2017-09-25T12:13:19.562Z,73.50
2017-09-25T12:15:46.995Z,73.50
2017-09-25T12:18:15.200Z,73.50
2017-09-25T12:20:42.637Z,73.50
2017-09-25T12:23:10.849Z,73.30
2017-09-25T12:25:38.301Z,74.00
2017-09-25T12:28:05.738Z,73.40
2017-09-25T12:30:33.952Z,73.30
2017-09-25T12:33:01.390Z,73.30
2017-09-25T12:35:28.850Z,73.30
2017-09-25T12:37:57.065Z,73.40
2017-09-25T12:40:24.505Z,73.40
2017-09-25T12:42:52.005Z,73.50
2017-09-25T12:45:19.433Z,73.40
2017-09-25T12:47:46.921Z,73.30
2017-09-25T12:50:14.353Z,73.30
2017-09-25T12:52:41.813Z,73.20
2017-09-25T12:55:10.029Z,73.10
2017-09-25T12:57:37.477Z,73.10
2017-09-25T13:00:04.914Z,73.00
2017-09-25T13:02:32.359Z,73.10
2017-09-25T13:04:59.797Z,73.10
2017-09-25T13:07:27.225Z,73.10
2017-09-25T13:09:54.666Z,73.00
2017-09-25T13:12:25.783Z,73.00
2017-09-25T13:14:53.252Z,73.00
2017-09-25T13:17:20.691Z,73.10
2017-09-25T13:19:48.129Z,73.10
2017-09-25T13:22:15.578Z,73.20
2017-09-25T13:24:43.028Z,73.10
2017-09-25T13:27:10.473Z,73.10
2017-09-25T13:29:38.665Z,73.10
2017-09-25T13:32:06.113Z,73.10
2017-09-25T13:34:34.323Z,73.20
2017-09-25T13:37:01.774Z,73.20
2017-09-25T13:39:32.238Z,73.20
2017-09-25T13:42:00.469Z,73.20
2017-09-25T13:44:28.677Z,73.30
2017-09-25T13:46:56.111Z,73.30
2017-09-25T13:49:24.322Z,73.40
2017-09-25T13:51:51.761Z,73.40
2017-09-25T13:54:19.973Z,73.30
2017-09-25T13:56:47.405Z,73.30
2017-09-25T14:04:20.659Z,73.30
2017-09-25T14:06:48.102Z,73.20
2017-09-25T14:09:16.308Z,73.20
2017-09-25T14:11:43.741Z,73.20
2017-09-25T14:14:11.969Z,73.30
2017-09-25T14:16:39.421Z,73.20
2017-09-25T14:19:07.687Z,73.20
2017-09-25T14:21:35.126Z,73.20
2017-09-25T14:24:03.345Z,73.20
2017-09-25T14:26:30.792Z,73.10
2017-09-25T14:28:58.235Z,73.20
2017-09-25T14:31:26.452Z,73.10
2017-09-25T14:33:53.881Z,73.00
2017-09-25T14:36:21.332Z,72.80
2017-09-25T14:38:49.540Z,72.90
2017-09-25T14:41:16.997Z,72.80
2017-09-25T14:43:44.433Z,72.70
2017-09-25T14:46:12.647Z,72.50
2017-09-25T14:48:40.073Z,72.40
2017-09-25T14:51:08.296Z,72.40
2017-09-25T14:53:35.738Z,72.40
2017-09-25T14:56:03.174Z,72.20
2017-09-25T14:58:31.379Z,72.20
2017-09-25T15:00:58.836Z,71.50
2017-09-25T15:03:26.302Z,71.90
2017-09-25T15:05:53.750Z,72.10
2017-09-25T15:08:21.946Z,72.30
2017-09-25T15:10:49.393Z,72.20
2017-09-25T15:13:17.589Z,72.30
2017-09-25T15:15:45.029Z,73.10
2017-09-25T15:18:13.242Z,72.50
2017-09-25T15:20:40.703Z,72.40
2017-09-25T15:23:08.132Z,72.50
2017-09-25T15:25:36.335Z,73.40
2017-09-25T15:28:03.778Z,72.60
2017-09-25T15:30:31.978Z,72.70
2017-09-25T15:32:59.415Z,72.70
2017-09-25T15:35:26.848Z,72.80
2017-09-25T15:37:54.310Z,72.90
2017-09-25T15:40:21.733Z,72.70
2017-09-25T15:42:49.200Z,72.90
2017-09-25T15:45:16.646Z,72.90
2017-09-25T15:47:44.114Z,72.90
2017-09-25T15:50:11.563Z,72.90
2017-09-25T15:52:39.767Z,72.90
2017-09-25T15:55:07.222Z,72.90
2017-09-25T15:57:34.682Z,72.90
2017-09-25T16:00:02.876Z,73.00
2017-09-25T16:02:30.317Z,73.00
2017-09-25T16:04:57.794Z,73.00
2017-09-25T16:07:25.225Z,73.00
2017-09-25T16:09:53.438Z,72.90
2017-09-25T16:12:20.894Z,73.00
2017-09-25T16:14:48.335Z,72.90
2017-09-25T16:17:16.544Z,73.10
2017-09-25T16:19:43.979Z,73.10
2017-09-25T16:22:12.213Z,73.20
2017-09-25T16:24:39.659Z,73.20
2017-09-25T16:27:07.102Z,73.20
2017-09-25T16:29:34.546Z,73.30
2017-09-25T16:32:02.776Z,73.40
2017-09-25T16:34:30.204Z,73.30
2017-09-25T16:36:57.645Z,73.30
2017-09-25T16:39:25.857Z,73.50
2017-09-25T16:41:53.290Z,73.50
2017-09-25T16:44:21.500Z,73.60
2017-09-25T16:46:48.941Z,73.60
2017-09-25T16:49:17.166Z,73.80
2017-09-25T16:51:44.590Z,73.70
2017-09-25T16:54:12.038Z,73.90
2017-09-25T16:56:40.287Z,74.40
2017-09-25T16:59:08.544Z,74.40
2017-09-25T17:01:35.994Z,74.40
2017-09-25T17:04:03.437Z,74.50
2017-09-25T17:06:31.669Z,74.70
2017-09-25T17:08:59.086Z,74.70
2017-09-25T17:11:26.842Z,74.80
2017-09-25T17:13:54.300Z,74.90
2017-09-25T17:16:22.561Z,75.20
2017-09-25T17:18:50.036Z,75.20
2017-09-25T17:21:18.264Z,76.00
2017-09-25T17:23:45.701Z,75.30
2017-09-25T17:26:13.170Z,75.60
2017-09-25T17:28:40.643Z,75.60
2017-09-25T17:31:08.069Z,75.70
2017-09-25T17:33:36.272Z,76.00
2017-09-25T17:36:03.718Z,75.80
2017-09-25T17:38:31.913Z,76.00
2017-09-25T17:40:59.358Z,76.00
2017-09-25T17:43:27.566Z,76.20
2017-09-25T17:45:55.005Z,76.20
2017-09-25T17:48:23.218Z,76.30
2017-09-25T17:50:50.666Z,76.30
2017-09-25T17:53:18.133Z,76.40
2017-09-25T17:55:45.565Z,76.40
2017-09-25T17:58:13.782Z,76.90
2017-09-25T18:00:41.223Z,76.80
2017-09-25T18:03:08.674Z,77.00
2017-09-25T18:05:36.091Z,77.10
2017-09-25T18:08:03.525Z,77.20
2017-09-25T18:10:30.966Z,77.20
2017-09-25T18:12:59.164Z,77.10
2017-09-25T18:15:26.610Z,77.20
2017-09-25T18:17:54.822Z,77.20
2017-09-25T18:20:22.293Z,77.20
2017-09-25T18:22:49.784Z,77.20
2017-09-25T18:25:17.213Z,77.20
2017-09-25T18:27:44.867Z,77.30
2017-09-25T18:30:12.352Z,77.30
2017-09-25T18:32:39.814Z,77.30
2017-09-25T18:35:07.261Z,77.20
2017-09-25T18:37:34.694Z,77.30
2017-09-25T18:40:02.902Z,77.50
2017-09-25T18:42:30.349Z,77.50
2017-09-25T18:44:57.793Z,77.40
2017-09-25T18:47:26.029Z,77.50
2017-09-25T18:49:53.466Z,77.50
2017-09-25T18:52:20.910Z,77.50
2017-09-25T18:54:48.360Z,77.50
2017-09-25T18:57:16.553Z,77.70
2017-09-25T18:59:43.992Z,77.60
2017-09-25T19:02:11.429Z,77.50
2017-09-25T19:04:38.860Z,77.60
2017-09-25T19:07:06.298Z,77.70
2017-09-25T19:09:33.730Z,77.70
2017-09-25T19:12:01.246Z,77.70
2017-09-25T19:14:29.523Z,77.90
2017-09-25T19:16:57.000Z,77.90
2017-09-25T19:19:24.476Z,77.90
2017-09-25T19:21:51.938Z,77.90
2017-09-25T19:24:19.373Z,78.00
2017-09-25T19:26:46.818Z,78.10
2017-09-25T19:29:15.035Z,78.00
2017-09-25T19:31:42.474Z,78.00
2017-09-25T19:34:10.021Z,78.10
2017-09-25T19:36:38.222Z,78.30
2017-09-25T19:39:05.677Z,78.40
2017-09-25T19:41:33.112Z,78.40
2017-09-25T19:44:01.405Z,78.20
2017-09-25T19:46:29.594Z,78.10
2017-09-25T19:49:15.692Z,78.10
2017-09-25T19:51:43.125Z,78.10
2017-09-25T19:54:14.205Z,78.30
2017-09-25T19:56:45.183Z,78.10
2017-09-25T19:59:12.625Z,78.20
2017-09-25T20:01:40.061Z,78.20
2017-09-25T20:04:07.526Z,78.40
2017-09-25T20:06:34.957Z,78.60
2017-09-25T20:09:03.182Z,79.00
2017-09-25T20:11:30.630Z,78.50
2017-09-25T20:13:59.473Z,78.50
2017-09-25T20:16:42.710Z,78.50
2017-09-25T20:19:10.182Z,78.50
2017-09-25T20:21:37.640Z,78.40
2017-09-25T20:24:05.074Z,78.50
2017-09-25T20:26:32.541Z,78.40
2017-09-25T20:28:59.981Z,78.30
2017-09-25T20:31:27.437Z,78.40
2017-09-25T20:33:54.894Z,78.40
2017-09-25T20:36:22.361Z,78.40
2017-09-25T20:38:49.833Z,78.40
2017-09-25T20:41:33.080Z,78.30
2017-09-25T20:44:00.541Z,79.10
2017-09-25T20:46:28.069Z,78.30
2017-09-25T20:48:55.533Z,78.30
2017-09-25T20:51:22.954Z,78.50
2017-09-25T20:53:50.398Z,78.40
2017-09-25T20:56:17.828Z,78.60
2017-09-25T20:58:45.280Z,78.40
2017-09-25T21:01:12.715Z,78.40
2017-09-25T21:03:40.184Z,78.40
2017-09-25T21:06:08.414Z,78.40
2017-09-25T21:08:35.869Z,78.40
2017-09-25T21:11:03.317Z,78.40
2017-09-25T21:13:30.765Z,78.40
2017-09-25T21:15:58.213Z,78.50
2017-09-25T21:18:26.445Z,78.50
2017-09-25T21:20:53.880Z,78.50
2017-09-25T21:23:21.329Z,78.50
2017-09-25T21:25:50.222Z,78.40
2017-09-25T21:28:17.674Z,78.60
2017-09-25T21:30:45.877Z,78.50
2017-09-25T21:33:13.329Z,78.50
2017-09-25T21:35:40.778Z,78.50
2017-09-25T21:38:08.986Z,78.50
2017-09-25T21:40:36.434Z,78.50
2017-09-25T21:43:03.868Z,78.60
2017-09-25T21:45:31.314Z,78.60
2017-09-25T21:48:01.883Z,78.80
2017-09-25T21:50:34.065Z,78.50
2017-09-25T21:53:01.497Z,78.30
2017-09-25T21:55:28.948Z,78.30
2017-09-25T21:57:56.381Z,78.30
2017-09-25T22:00:23.828Z,78.30
2017-09-25T22:02:51.347Z,78.30
2017-09-25T22:05:18.818Z,78.30
2017-09-25T22:07:47.022Z,78.20
2017-09-25T22:10:15.420Z,78.10
2017-09-25T22:12:42.847Z,78.10
2017-09-25T22:15:11.094Z,78.10
2017-09-25T22:17:40.187Z,78.10
2017-09-25T22:20:08.217Z,78.10
2017-09-25T22:22:36.042Z,78.10
2017-09-25T22:25:03.738Z,78.20
2017-09-25T22:27:31.427Z,78.30
2017-09-25T22:29:59.892Z,78.50
2017-09-25T22:32:29.089Z,78.50
2017-09-25T22:34:57.465Z,78.40
2017-09-25T22:37:25.510Z,78.40
2017-09-25T22:39:53.026Z,78.30
2017-09-25T22:42:37.042Z,78.50
2017-09-25T22:45:04.490Z,78.30
2017-09-25T22:47:31.925Z,78.40
2017-09-25T22:49:59.377Z,78.30
2017-09-25T22:52:26.803Z,78.40
2017-09-25T22:54:55.013Z,78.50
2017-09-25T22:57:22.438Z,78.40
2017-09-25T22:59:49.894Z,78.30
2017-09-25T23:02:17.322Z,78.60
2017-09-25T23:05:02.624Z,78.30
2017-09-25T23:07:30.070Z,78.30
2017-09-25T23:09:59.074Z,78.30
2017-09-25T23:12:26.533Z,78.30
2017-09-25T23:14:53.962Z,78.30
2017-09-25T23:17:21.398Z,78.40
2017-09-25T23:19:49.592Z,78.40
2017-09-25T23:22:17.035Z,78.40
2017-09-25T23:24:45.233Z,78.50
2017-09-25T23:27:12.671Z,78.40
2017-09-25T23:29:41.422Z,79.30
2017-09-25T23:32:08.863Z,78.50
2017-09-25T23:34:36.325Z,78.40
2017-09-25T23:37:03.773Z,78.50
2017-09-25T23:39:31.221Z,78.50
2017-09-25T23:41:59.425Z,78.70
2017-09-25T23:44:26.877Z,78.80
2017-09-25T23:46:54.313Z,78.80
2017-09-25T23:49:21.768Z,78.80
2017-09-25T23:51:49.213Z,78.80
2017-09-25T23:54:16.650Z,78.80
2017-09-25T23:56:44.092Z,78.80
2017-09-25T23:59:11.537Z,78.90
